createdAt,value
2023-04-19T00:02:25.496Z,1.50
2023-04-19T00:04:55.532Z,1.50
2023-04-19T00:07:23.422Z,1.58
2023-04-19T00:09:51.105Z,1.30
2023-04-19T00:12:18.814Z,1.48
2023-04-19T00:14:46.469Z,1.40
2023-04-19T00:17:15.451Z,1.40
2023-04-19T00:19:43.208Z,1.42
2023-04-19T00:22:11.095Z,1.30
2023-04-19T00:24:38.777Z,1.40
2023-04-19T00:27:06.458Z,1.55
2023-04-19T00:29:34.120Z,1.48
2023-04-19T00:32:02.001Z,1.55
2023-04-19T00:34:32.439Z,1.50
2023-04-19T00:37:00.235Z,1.50
2023-04-19T00:39:27.982Z,1.30
2023-04-19T00:41:57.257Z,1.40
2023-04-19T00:44:25.274Z,1.48
2023-04-19T00:46:54.900Z,1.48
2023-04-19T00:49:22.571Z,1.23
2023-04-19T00:51:52.055Z,1.33
2023-04-19T00:54:19.910Z,1.50
2023-04-19T00:56:50.186Z,1.30
2023-04-19T00:59:18.330Z,1.50
2023-04-19T01:01:46.063Z,1.40
2023-04-19T01:04:14.062Z,1.50
2023-04-19T01:06:42.194Z,1.50
2023-04-19T01:09:13.315Z,1.40
2023-04-19T01:11:43.398Z,1.30
2023-04-19T01:14:11.315Z,1.40
2023-04-19T01:16:39.587Z,1.33
2023-04-19T01:19:07.364Z,1.30
2023-04-19T01:21:38.199Z,1.30
2023-04-19T01:24:07.808Z,1.23
2023-04-19T01:26:35.664Z,1.50
2023-04-19T01:29:03.618Z,1.35
2023-04-19T01:31:31.389Z,1.50
2023-04-19T01:33:59.210Z,1.25
2023-04-19T01:36:27.683Z,1.30
2023-04-19T01:38:55.410Z,1.45
2023-04-19T01:41:26.983Z,1.40
2023-04-19T01:43:54.843Z,1.40
2023-04-19T01:46:22.571Z,1.40
2023-04-19T01:48:50.278Z,1.50
2023-04-19T01:51:18.189Z,1.30
2023-04-19T01:53:45.880Z,1.40
2023-04-19T01:56:13.589Z,1.30
2023-04-19T01:58:42.583Z,1.23
2023-04-19T02:01:12.472Z,1.35
2023-04-19T02:03:40.484Z,1.58
2023-04-19T02:06:11.671Z,1.60
2023-04-19T02:08:39.365Z,1.38
2023-04-19T02:11:10.369Z,1.30
2023-04-19T02:13:38.051Z,1.50
2023-04-19T02:16:09.471Z,1.60
2023-04-19T02:18:38.300Z,1.45
2023-04-19T02:21:06.239Z,1.25
2023-04-19T02:23:34.510Z,1.40
2023-04-19T02:26:03.119Z,1.35
2023-04-19T02:28:30.834Z,1.50
2023-04-19T02:30:58.658Z,1.50
2023-04-19T02:33:28.808Z,1.38
2023-04-19T02:35:56.517Z,1.30
2023-04-19T02:38:24.190Z,1.30
2023-04-19T02:40:54.823Z,1.52
2023-04-19T02:43:22.500Z,1.38
2023-04-19T02:45:50.612Z,1.40
2023-04-19T02:48:18.521Z,1.30
2023-04-19T02:50:47.564Z,1.10
2023-04-19T02:53:15.451Z,1.38
2023-04-19T02:55:43.603Z,1.50
2023-04-19T02:58:16.713Z,1.23
2023-04-19T03:00:55.845Z,1.50
2023-04-19T03:03:24.546Z,1.30
2023-04-19T03:05:53.696Z,1.20
2023-04-19T03:08:21.507Z,1.30
2023-04-19T03:10:49.209Z,1.33
2023-04-19T03:13:16.931Z,1.50
2023-04-19T03:15:44.745Z,1.33
2023-04-19T03:18:12.988Z,1.40
2023-04-19T03:20:43.406Z,1.30
2023-04-19T03:23:12.684Z,1.23
2023-04-19T03:25:41.175Z,1.30
2023-04-19T03:28:20.124Z,1.33
2023-04-19T03:31:23.148Z,1.30
2023-04-19T03:33:52.862Z,1.45
2023-04-19T03:36:23.782Z,1.33
2023-04-19T03:38:52.859Z,1.40
2023-04-19T03:41:24.449Z,1.40
2023-04-19T03:44:01.229Z,1.40
2023-04-19T03:46:31.465Z,1.27
2023-04-19T03:48:59.990Z,1.30
2023-04-19T03:51:29.154Z,1.30
2023-04-19T03:53:58.260Z,1.27
2023-04-19T03:56:26.422Z,1.30
2023-04-19T03:58:55.613Z,1.42
2023-04-19T04:01:24.279Z,1.33
2023-04-19T04:03:53.592Z,1.40
2023-04-19T04:06:21.629Z,1.40
2023-04-19T04:08:49.746Z,1.40
2023-04-19T04:11:18.774Z,1.20
2023-04-19T04:13:50.341Z,1.35
2023-04-19T04:16:21.821Z,1.30
2023-04-19T04:18:51.503Z,1.35
2023-04-19T04:21:19.377Z,1.50
2023-04-19T04:23:49.877Z,1.20
2023-04-19T04:26:39.235Z,1.30
2023-04-19T04:29:14.381Z,1.20
2023-04-19T04:31:43.434Z,1.35
2023-04-19T04:34:11.587Z,1.20
2023-04-19T04:36:49.579Z,1.40
2023-04-19T04:39:19.111Z,1.20
2023-04-19T04:41:49.535Z,1.33
2023-04-19T04:44:17.188Z,1.20
2023-04-19T04:46:47.087Z,1.02
2023-04-19T04:49:20.367Z,1.27
2023-04-19T04:51:48.347Z,1.20
2023-04-19T04:54:16.596Z,1.20
2023-04-19T04:56:45.389Z,1.20
2023-04-19T04:59:14.629Z,1.20
2023-04-19T05:01:45.502Z,1.58
2023-04-19T05:04:14.808Z,1.35
2023-04-19T05:06:44.453Z,1.23
2023-04-19T05:09:12.710Z,1.20
2023-04-19T05:11:40.820Z,1.20
2023-04-19T05:14:08.584Z,1.30
2023-04-19T05:16:37.702Z,1.20
2023-04-19T05:19:05.607Z,1.38
2023-04-19T05:21:37.590Z,1.27
2023-04-19T05:24:07.082Z,1.23
2023-04-19T05:26:36.350Z,1.20
2023-04-19T05:29:05.952Z,1.20
2023-04-19T05:31:48.749Z,1.20
2023-04-19T05:34:23.712Z,1.20
2023-04-19T05:36:52.046Z,1.38
2023-04-19T05:39:19.871Z,1.45
2023-04-19T05:41:47.660Z,1.35
2023-04-19T05:44:15.663Z,1.20
2023-04-19T05:46:43.661Z,1.30
2023-04-19T05:49:15.789Z,1.63
2023-04-19T05:51:58.630Z,1.50
2023-04-19T05:54:40.686Z,1.70
2023-04-19T05:57:08.484Z,1.40
2023-04-19T05:59:36.354Z,1.50
2023-04-19T06:02:04.967Z,1.65
2023-04-19T06:04:34.403Z,1.60
2023-04-19T06:07:04.475Z,1.70
2023-04-19T06:09:32.475Z,1.50
2023-04-19T06:12:00.284Z,1.80
2023-04-19T06:14:28.588Z,1.52
2023-04-19T06:16:56.951Z,2.00
2023-04-19T06:19:24.695Z,1.50
2023-04-19T06:21:53.730Z,1.60
2023-04-19T06:24:21.553Z,1.50
2023-04-19T06:26:49.653Z,1.45
2023-04-19T06:29:20.229Z,1.30
2023-04-19T06:31:48.031Z,1.77
2023-04-19T06:34:16.189Z,1.85
2023-04-19T06:36:43.955Z,1.67
2023-04-19T06:39:12.946Z,1.70
2023-04-19T06:41:40.802Z,1.70
2023-04-19T06:44:08.497Z,1.70
2023-04-19T06:46:36.181Z,1.50
2023-04-19T06:49:04.159Z,1.80
2023-04-19T06:51:31.981Z,1.45
2023-04-19T06:53:59.654Z,1.70
2023-04-19T06:56:47.114Z,1.40
2023-04-19T06:59:16.414Z,1.40
2023-04-19T07:01:44.323Z,1.50
2023-04-19T07:04:12.331Z,1.38
2023-04-19T07:06:40.258Z,1.50
2023-04-19T07:09:08.257Z,1.20
2023-04-19T07:11:35.980Z,3.35
2023-04-19T07:14:04.988Z,1.30
2023-04-19T07:16:32.708Z,1.65
2023-04-19T07:19:00.443Z,1.20
2023-04-19T07:21:32.731Z,1.13
2023-04-19T07:24:00.464Z,1.10
2023-04-19T07:26:28.221Z,1.20
2023-04-19T07:28:56.178Z,1.10
2023-04-19T07:31:25.757Z,1.45
2023-04-19T07:33:53.501Z,1.45
2023-04-19T07:36:21.671Z,1.42
2023-04-19T07:38:49.409Z,1.90
2023-04-19T07:41:18.034Z,1.27
2023-04-19T07:43:45.719Z,1.30
2023-04-19T07:46:16.112Z,1.58
2023-04-19T07:48:45.389Z,1.23
2023-04-19T07:51:13.320Z,1.10
2023-04-19T07:53:41.494Z,1.38
2023-04-19T07:56:11.427Z,1.10
2023-04-19T07:58:41.228Z,1.17
2023-04-19T08:01:09.056Z,1.10
2023-04-19T08:03:37.656Z,1.10
2023-04-19T08:06:08.257Z,1.17
2023-04-19T08:08:36.050Z,1.30
2023-04-19T08:11:04.005Z,1.30
2023-04-19T08:13:31.754Z,1.48
2023-04-19T08:18:30.096Z,1.75
2023-04-19T08:20:58.646Z,1.35
2023-04-19T08:23:32.057Z,1.55
2023-04-19T08:26:05.852Z,1.65
2023-04-19T08:28:33.603Z,1.38
2023-04-19T08:31:01.320Z,1.60
2023-04-19T08:33:29.750Z,1.30
2023-04-19T08:35:57.409Z,1.65
2023-04-19T08:38:25.138Z,1.60
2023-04-19T08:40:55.033Z,1.20
2023-04-19T08:43:22.784Z,1.52
2023-04-19T08:45:50.665Z,1.58
2023-04-19T08:48:18.798Z,1.30
2023-04-19T08:51:03.352Z,1.77
2023-04-19T08:53:33.545Z,1.60
2023-04-19T08:58:50.350Z,1.95
2023-04-19T09:01:33.780Z,2.17
2023-04-19T09:04:16.990Z,1.70
2023-04-19T09:06:49.775Z,1.80
2023-04-19T09:11:50.721Z,2.33
2023-04-19T09:14:19.625Z,2.38
2023-04-19T09:16:47.403Z,1.75
2023-04-19T09:19:24.011Z,2.47
2023-04-19T09:21:54.527Z,2.30
2023-04-19T09:25:02.576Z,2.42
2023-04-19T09:27:31.195Z,2.47
2023-04-19T09:29:59.756Z,2.22
2023-04-19T09:32:27.770Z,2.08
2023-04-19T09:34:56.269Z,2.17
2023-04-19T09:39:54.880Z,2.30
2023-04-19T09:42:36.336Z,2.42
2023-04-19T09:45:29.368Z,2.30
2023-04-19T09:48:04.913Z,3.30
2023-04-19T09:50:34.171Z,2.13
2023-04-19T09:53:06.533Z,2.25
2023-04-19T09:55:41.500Z,2.55
2023-04-19T09:58:16.642Z,2.17
2023-04-19T10:00:49.894Z,2.50
2023-04-19T10:03:19.503Z,1.90
2023-04-19T10:05:47.359Z,2.60
2023-04-19T10:08:15.673Z,1.95
2023-04-19T10:10:45.562Z,2.60
2023-04-19T10:15:52.029Z,1.95
2023-04-19T10:18:23.164Z,2.75
2023-04-19T10:20:53.634Z,2.40
2023-04-19T10:23:21.528Z,2.20
2023-04-19T10:25:49.470Z,2.28
2023-04-19T10:28:17.503Z,2.22
2023-04-19T10:30:56.548Z,2.10
2023-04-19T10:33:28.188Z,2.30
2023-04-19T10:35:59.022Z,2.00
2023-04-19T10:38:37.348Z,2.15
2023-04-19T10:41:05.465Z,2.40
2023-04-19T10:43:34.175Z,2.20
2023-04-19T10:46:03.648Z,2.63
2023-04-19T10:48:38.018Z,2.30
2023-04-19T10:51:14.326Z,2.25
2023-04-19T10:53:52.353Z,2.13
2023-04-19T10:56:20.943Z,2.15
2023-04-19T10:59:22.827Z,1.90
2023-04-19T11:01:53.606Z,2.05
2023-04-19T11:04:23.443Z,2.45
2023-04-19T11:07:01.248Z,2.22
2023-04-19T11:09:34.447Z,1.90
2023-04-19T11:12:03.401Z,2.33
2023-04-19T11:14:35.498Z,1.90
2023-04-19T11:17:17.244Z,2.28
2023-04-19T11:19:46.506Z,2.35
2023-04-19T11:22:14.220Z,2.00
2023-04-19T11:24:47.074Z,2.05
2023-04-19T11:27:14.781Z,2.75
2023-04-19T11:29:42.452Z,2.25
2023-04-19T11:32:11.471Z,2.35
2023-04-19T11:34:39.405Z,2.03
2023-04-19T11:37:07.164Z,2.38
2023-04-19T11:39:34.860Z,2.53
2023-04-19T11:42:03.322Z,2.72
2023-04-19T11:44:31.176Z,1.88
2023-04-19T11:47:00.084Z,2.60
2023-04-19T11:49:30.175Z,2.22
2023-04-19T11:51:59.385Z,2.10
2023-04-19T11:54:27.410Z,2.78
2023-04-19T11:57:03.585Z,2.05
2023-04-19T11:59:32.109Z,2.50
2023-04-19T12:02:07.210Z,2.33
2023-04-19T12:04:36.420Z,2.00
2023-04-19T12:07:05.548Z,2.03
2023-04-19T12:09:34.650Z,2.15
2023-04-19T12:12:03.017Z,2.72
2023-04-19T12:14:31.382Z,2.47
2023-04-19T12:17:10.012Z,2.63
2023-04-19T12:19:42.735Z,2.70
2023-04-19T12:22:14.561Z,2.50
2023-04-19T12:24:42.342Z,2.28
2023-04-19T12:27:10.801Z,2.50
2023-04-19T12:29:38.872Z,2.50
2023-04-19T12:32:07.067Z,2.40
2023-04-19T12:34:34.832Z,2.60
2023-04-19T12:37:04.255Z,2.30
2023-04-19T12:39:32.029Z,2.40
2023-04-19T12:41:59.695Z,2.72
2023-04-19T12:44:27.357Z,2.33
2023-04-19T12:46:57.270Z,3.00
2023-04-19T12:49:25.190Z,2.30
2023-04-19T12:51:55.194Z,2.75
2023-04-19T12:54:25.702Z,2.33
2023-04-19T12:56:53.690Z,2.25
2023-04-19T12:59:22.028Z,2.50
2023-04-19T13:01:49.882Z,2.05
2023-04-19T13:04:18.049Z,2.20
2023-04-19T13:06:46.140Z,2.30
2023-04-19T13:09:14.852Z,2.33
2023-04-19T13:11:44.257Z,2.42
2023-04-19T13:14:11.953Z,2.35
2023-04-19T13:16:39.614Z,2.08
2023-04-19T13:19:07.578Z,2.70
2023-04-19T13:21:35.298Z,2.42
2023-04-19T13:24:02.998Z,2.70
2023-04-19T13:26:30.709Z,2.20
2023-04-19T13:29:08.591Z,2.20
2023-04-19T13:31:36.323Z,2.22
2023-04-19T13:34:04.185Z,2.00
2023-04-19T13:36:31.994Z,2.80
2023-04-19T13:38:59.686Z,2.58
2023-04-19T13:41:27.444Z,2.10
2023-04-19T13:43:55.159Z,2.30
2023-04-19T13:46:24.438Z,2.20
2023-04-19T13:48:52.164Z,2.20
2023-04-19T13:51:19.847Z,1.90
2023-04-19T13:53:47.531Z,2.13
2023-04-19T13:56:15.342Z,2.30
2023-04-19T13:58:43.038Z,2.10
2023-04-19T14:01:10.707Z,2.20
2023-04-19T14:03:39.944Z,2.10
2023-04-19T14:06:07.878Z,2.30
2023-04-19T14:08:35.597Z,2.42
2023-04-19T14:11:03.234Z,2.17
2023-04-19T14:13:31.017Z,2.58
2023-04-19T14:15:58.717Z,2.70
2023-04-19T14:18:26.790Z,2.53
2023-04-19T14:20:55.778Z,4.00
2023-04-19T14:23:23.425Z,2.80
2023-04-19T14:25:51.189Z,2.63
2023-04-19T14:28:19.360Z,2.80
2023-04-19T14:30:47.030Z,2.63
2023-04-19T14:33:14.805Z,2.65
2023-04-19T14:35:42.673Z,2.60
2023-04-19T14:38:11.638Z,2.50
2023-04-19T14:40:39.280Z,2.90
2023-04-19T14:43:06.954Z,2.55
2023-04-19T14:45:34.647Z,2.72
2023-04-19T14:48:02.683Z,2.40
2023-04-19T14:50:30.382Z,2.42
2023-04-19T14:52:58.044Z,2.40
2023-04-19T14:55:27.772Z,2.33
2023-04-19T14:57:55.514Z,2.33
2023-04-19T15:00:23.385Z,2.40
2023-04-19T15:02:51.305Z,2.08
2023-04-19T15:05:19.372Z,2.15
2023-04-19T15:07:47.143Z,3.90
2023-04-19T15:10:14.873Z,3.45
2023-04-19T15:12:43.897Z,3.42
2023-04-19T15:15:12.283Z,2.72
2023-04-19T15:17:40.634Z,3.10
2023-04-19T15:20:09.723Z,2.60
2023-04-19T15:22:37.392Z,2.60
2023-04-19T15:25:05.487Z,2.60
2023-04-19T15:27:33.152Z,2.70
2023-04-19T15:30:02.172Z,5.13
2023-04-19T15:32:34.105Z,3.22
2023-04-19T15:35:01.811Z,2.75
2023-04-19T15:37:29.493Z,2.83
2023-04-19T15:39:57.169Z,2.60
2023-04-19T15:42:24.822Z,2.35
2023-04-19T15:44:52.482Z,2.30
2023-04-19T15:47:21.622Z,2.13
2023-04-19T15:49:49.328Z,1.98
2023-04-19T15:52:18.063Z,4.45
2023-04-19T15:54:45.728Z,2.90
2023-04-19T15:57:13.406Z,5.68
2023-04-19T15:59:41.120Z,3.10
2023-04-19T16:02:08.965Z,2.42
2023-04-19T16:04:38.447Z,4.65
2023-04-19T16:07:06.376Z,3.70
2023-04-19T16:09:34.030Z,3.05
2023-04-19T16:12:01.998Z,3.13
2023-04-19T16:14:29.669Z,5.47
2023-04-19T16:16:57.366Z,3.80
2023-04-19T16:19:25.278Z,3.05
2023-04-19T16:21:54.323Z,3.47
2023-04-19T16:24:22.056Z,2.85
2023-04-19T16:26:49.895Z,2.58
2023-04-19T16:29:17.729Z,2.97
2023-04-19T16:31:45.587Z,2.80
2023-04-19T16:34:13.333Z,3.03
2023-04-19T16:36:44.599Z,3.00
2023-04-19T16:39:13.705Z,2.50
2023-04-19T16:41:41.488Z,3.13
2023-04-19T16:44:09.174Z,3.38
2023-04-19T16:46:36.909Z,3.00
2023-04-19T16:49:04.723Z,2.83
2023-04-19T16:51:32.555Z,2.80
2023-04-19T16:54:00.263Z,2.70
2023-04-19T16:56:29.296Z,2.78
2023-04-19T16:58:56.964Z,2.67
2023-04-19T17:01:24.642Z,2.65
2023-04-19T17:03:52.483Z,2.78
2023-04-19T17:06:20.588Z,2.70
2023-04-19T17:08:48.280Z,2.38
2023-04-19T17:11:15.928Z,2.78
2023-04-19T17:13:44.958Z,2.97
2023-04-19T17:16:12.696Z,2.50
2023-04-19T17:18:40.498Z,2.20
2023-04-19T17:21:08.171Z,2.53
2023-04-19T17:23:35.854Z,3.10
2023-04-19T17:26:03.521Z,3.40
2023-04-19T17:28:31.185Z,3.58
2023-04-19T17:31:00.231Z,4.10
2023-04-19T17:33:27.925Z,3.45
2023-04-19T17:35:55.618Z,3.80
2023-04-19T17:38:23.270Z,3.85
2023-04-19T17:40:50.905Z,3.47
2023-04-19T17:43:18.567Z,4.53
2023-04-19T17:45:46.251Z,7.40
2023-04-19T17:48:15.393Z,5.40
2023-04-19T17:50:43.097Z,5.55
2023-04-19T17:53:11.024Z,5.18
2023-04-19T17:55:38.698Z,4.88
2023-04-19T17:58:06.497Z,5.80
2023-04-19T18:00:34.264Z,5.00
2023-04-19T18:03:02.066Z,5.03
2023-04-19T18:05:31.088Z,4.57
2023-04-19T18:07:58.762Z,4.65
2023-04-19T18:10:26.462Z,8.20
2023-04-19T18:12:54.668Z,6.38
2023-04-19T18:15:22.393Z,6.30
2023-04-19T18:17:50.098Z,4.00
2023-04-19T18:20:19.226Z,4.85
2023-04-19T18:22:50.298Z,4.20
2023-04-19T18:25:18.005Z,5.72
2023-04-19T18:27:45.757Z,4.28
2023-04-19T18:30:13.897Z,4.22
2023-04-19T18:32:41.564Z,3.85
2023-04-19T18:35:10.008Z,3.75
2023-04-19T18:37:37.678Z,3.42
2023-04-19T18:40:08.793Z,3.80
2023-04-19T18:42:36.450Z,3.78
2023-04-19T18:45:04.856Z,3.20
2023-04-19T18:47:32.643Z,3.83
2023-04-19T18:50:05.292Z,3.67
2023-04-19T18:52:34.996Z,3.15
2023-04-19T18:55:02.753Z,4.00
2023-04-19T18:57:34.469Z,3.38
2023-04-19T19:00:04.935Z,3.65
2023-04-19T19:02:34.030Z,3.15
2023-04-19T19:05:02.518Z,3.50
2023-04-19T19:10:03.651Z,2.72
2023-04-19T19:12:34.808Z,3.03
2023-04-19T19:15:02.689Z,2.90
2023-04-19T19:17:30.400Z,2.67
2023-04-19T19:19:58.108Z,3.10
2023-04-19T19:22:28.705Z,2.95
2023-04-19T19:24:57.009Z,2.70
2023-04-19T19:27:24.790Z,2.63
2023-04-19T19:29:53.835Z,3.30
2023-04-19T19:32:21.589Z,3.10
2023-04-19T19:37:20.851Z,2.85
2023-04-19T19:39:48.557Z,2.40
2023-04-19T19:42:16.795Z,2.38
2023-04-19T19:44:44.701Z,2.50
2023-04-19T19:47:16.162Z,2.65
2023-04-19T19:50:05.750Z,2.72
2023-04-19T19:52:32.744Z,2.47
2023-04-19T19:55:00.805Z,2.78
2023-04-19T20:00:22.422Z,2.08
2023-04-19T20:05:19.294Z,2.53
2023-04-19T20:08:01.276Z,1.90
2023-04-19T20:10:29.845Z,2.10
2023-04-19T20:12:58.387Z,2.50
2023-04-19T20:15:26.236Z,2.50
2023-04-19T20:17:55.315Z,2.70
2023-04-19T20:20:23.086Z,2.55
2023-04-19T20:22:50.759Z,2.40
2023-04-19T20:25:18.466Z,2.20
2023-04-19T20:27:46.225Z,2.35
2023-04-19T20:30:14.396Z,2.63
2023-04-19T20:32:43.081Z,2.38
2023-04-19T20:35:12.797Z,2.90
2023-04-19T20:37:40.703Z,2.35
2023-04-19T20:40:12.099Z,2.63
2023-04-19T20:42:40.106Z,2.75
2023-04-19T20:45:09.649Z,2.40
2023-04-19T20:47:38.698Z,2.45
2023-04-19T20:50:06.991Z,2.25
2023-04-19T20:52:36.075Z,2.55
2023-04-19T20:55:03.774Z,2.40
2023-04-19T20:57:31.478Z,2.03
2023-04-19T20:59:59.172Z,2.35
2023-04-19T21:02:26.944Z,2.53
2023-04-19T21:04:54.763Z,2.15
2023-04-19T21:07:22.411Z,2.20
2023-04-19T21:09:51.432Z,2.28
2023-04-19T21:12:19.132Z,2.30
2023-04-19T21:14:49.304Z,2.10
2023-04-19T21:17:17.224Z,2.10
2023-04-19T21:19:44.880Z,2.50
2023-04-19T21:22:12.534Z,2.20
2023-04-19T21:24:40.219Z,2.10
2023-04-19T21:27:09.242Z,2.47
2023-04-19T21:29:36.880Z,2.17
2023-04-19T21:32:04.592Z,2.25
2023-04-19T21:34:32.238Z,2.30
2023-04-19T21:36:59.902Z,2.05
2023-04-19T21:39:27.637Z,1.98
2023-04-19T21:41:55.292Z,2.28
2023-04-19T21:44:24.290Z,1.83
2023-04-19T21:46:51.997Z,2.05
2023-04-19T21:49:19.696Z,1.95
2023-04-19T21:51:47.540Z,1.63
2023-04-19T21:54:26.489Z,2.10
2023-04-19T21:57:00.841Z,2.28
2023-04-19T21:59:30.212Z,1.90
2023-04-19T22:01:58.221Z,2.08
2023-04-19T22:04:26.163Z,1.98
2023-04-19T22:06:53.822Z,2.10
2023-04-19T22:09:21.462Z,2.20
2023-04-19T22:11:50.200Z,1.88
2023-04-19T22:14:18.053Z,1.83
2023-04-19T22:16:47.446Z,2.05
2023-04-19T22:19:16.008Z,2.10
2023-04-19T22:21:43.846Z,2.40
2023-04-19T22:24:11.504Z,1.90
2023-04-19T22:26:39.203Z,2.38
2023-04-19T22:29:06.863Z,2.20
2023-04-19T22:31:34.546Z,2.40
2023-04-19T22:34:03.582Z,2.40
2023-04-19T22:36:31.306Z,2.38
2023-04-19T22:38:58.947Z,2.67
2023-04-19T22:41:26.619Z,2.40
2023-04-19T22:43:54.568Z,2.92
2023-04-19T22:46:22.344Z,2.63
2023-04-19T22:48:50.463Z,3.00
2023-04-19T22:51:20.104Z,2.90
2023-04-19T22:53:47.775Z,3.45
2023-04-19T22:56:17.638Z,3.47
2023-04-19T22:58:45.371Z,3.80
2023-04-19T23:01:13.264Z,4.05
2023-04-19T23:03:40.967Z,4.22
2023-04-19T23:06:09.240Z,4.78
2023-04-19T23:08:40.178Z,5.10
2023-04-19T23:11:10.043Z,5.20
2023-04-19T23:13:37.967Z,5.90
2023-04-19T23:16:06.252Z,6.35
2023-04-19T23:18:33.946Z,7.20
2023-04-19T23:21:01.621Z,7.38
2023-04-19T23:23:29.270Z,8.27
2023-04-19T23:25:58.256Z,8.80
2023-04-19T23:28:26.032Z,9.00
2023-04-19T23:30:53.747Z,10.25
2023-04-19T23:33:21.463Z,10.85
2023-04-19T23:35:49.157Z,11.38
2023-04-19T23:38:16.829Z,11.48
2023-04-19T23:40:44.485Z,13.00
2023-04-19T23:43:13.548Z,12.50
2023-04-19T23:45:41.210Z,13.15
2023-04-19T23:48:08.951Z,13.30
2023-04-19T23:50:36.684Z,13.70
2023-04-19T23:53:05.373Z,13.90
2023-04-19T23:55:33.096Z,14.57
2023-04-19T23:58:00.789Z,16.42
